Time;durP1;ratioP1;P1;durP2;ratioP2;P2;SDS_P1;SDS_P2;PMS_P1;PMS_P2;Temp;Humidity;BMP_temperature;BMP_pressure;BME280_temperature;BME280_humidity;BME280_pressure;Samples;Min_cycle;Max_cycle;Signal;HPM_P1;HPM_P2
2022/08/07 00:01:35;;;;;;;11.52;8.65;;;11.70;99.90;;;;;;5073335;28;20044;-82
2022/08/07 00:04:01;;;;;;;12.30;8.30;;;11.70;99.90;;;;;;5073600;28;20152;-82
2022/08/07 00:06:27;;;;;;;14.77;9.93;;;11.70;99.90;;;;;;5073414;28;20051;-82
2022/08/07 00:08:52;;;;;;;11.98;8.77;;;11.70;99.90;;;;;;5072015;28;20060;-82
2022/08/07 00:11:18;;;;;;;14.52;9.00;;;11.60;99.90;;;;;;5072805;28;20527;-81
2022/08/07 00:13:45;;;;;;;13.85;8.02;;;11.50;99.90;;;;;;5073072;28;20060;-81
2022/08/07 00:16:11;;;;;;;12.25;8.20;;;11.50;99.90;;;;;;5088890;28;20052;-82
2022/08/07 00:18:37;;;;;;;10.65;7.80;;;11.50;99.90;;;;;;5065970;28;20052;-81
2022/08/07 00:21:05;;;;;;;11.23;8.75;;;11.50;99.90;;;;;;5073078;28;20052;-82
2022/08/07 00:23:32;;;;;;;10.35;7.50;;;11.50;99.90;;;;;;5071469;28;20060;-81
2022/08/07 00:26:00;;;;;;;12.48;9.32;;;11.40;99.90;;;;;;5071707;28;20135;-82
2022/08/07 00:28:27;;;;;;;12.35;8.70;;;11.40;99.90;;;;;;5072481;28;20135;-82
2022/08/07 00:30:53;;;;;;;12.73;7.85;;;11.40;99.90;;;;;;5072345;28;20049;-81
2022/08/07 00:33:18;;;;;;;11.13;7.93;;;11.40;99.90;;;;;;5059607;28;20048;-81
2022/08/07 00:35:44;;;;;;;16.42;7.50;;;11.40;99.90;;;;;;5072955;28;20511;-81
2022/08/07 00:38:09;;;;;;;10.45;7.43;;;11.50;99.90;;;;;;5055079;28;20060;-81
2022/08/07 00:40:37;;;;;;;9.25;6.82;;;11.50;99.90;;;;;;5072709;28;20095;-83
2022/08/07 00:43:06;;;;;;;11.05;6.93;;;11.50;99.90;;;;;;5072368;28;20505;-81
2022/08/07 00:45:31;;;;;;;10.20;7.03;;;11.30;99.90;;;;;;5050747;28;20063;-82
2022/08/07 00:47:57;;;;;;;9.00;7.05;;;11.40;99.90;;;;;;5072720;28;20048;-84
2022/08/07 00:50:23;;;;;;;11.35;8.52;;;11.30;99.90;;;;;;5065423;28;20080;-81
2022/08/07 00:52:48;;;;;;;12.63;8.50;;;11.40;99.90;;;;;;5071358;28;20048;-81
2022/08/07 00:55:14;;;;;;;9.82;7.47;;;11.30;99.90;;;;;;5072425;28;20080;-86
2022/08/07 00:57:40;;;;;;;10.68;7.80;;;11.30;99.90;;;;;;5072209;28;20066;-82
2022/08/07 01:00:07;;;;;;;8.35;6.95;;;11.30;99.90;;;;;;5055860;28;20127;-82
2022/08/07 01:02:33;;;;;;;10.10;6.20;;;11.20;99.90;;;;;;5037666;28;20411;-82
2022/08/07 01:04:59;;;;;;;8.70;5.70;;;11.10;99.90;;;;;;5072056;28;20055;-82
2022/08/07 01:07:26;;;;;;;8.45;6.35;;;11.10;99.90;;;;;;5072303;28;20053;-82
2022/08/07 01:09:52;;;;;;;9.65;6.88;;;11.20;99.90;;;;;;5072188;28;20432;-81
2022/08/07 01:12:18;;;;;;;9.43;6.55;;;11.20;99.90;;;;;;5054337;28;20052;-81
2022/08/07 01:14:44;;;;;;;9.65;6.90;;;11.10;99.90;;;;;;5071913;28;20053;-81
2022/08/07 01:17:11;;;;;;;10.57;7.40;;;11.10;99.90;;;;;;5070933;28;20048;-82
2022/08/07 01:19:37;;;;;;;8.10;6.70;;;11.00;99.90;;;;;;5063992;28;20044;-88
2022/08/07 01:22:04;;;;;;;9.05;5.75;;;11.00;99.90;;;;;;5072095;28;20053;-83
2022/08/07 01:24:31;;;;;;;8.10;6.40;;;11.00;99.90;;;;;;5054638;28;20087;-82
2022/08/07 01:26:58;;;;;;;11.55;6.22;;;11.00;99.90;;;;;;5054417;28;20060;-82
2022/08/07 01:29:27;;;;;;;10.63;6.45;;;11.00;99.90;;;;;;5087988;28;20455;-81
2022/08/07 01:31:54;;;;;;;8.95;6.32;;;10.90;99.90;;;;;;5055576;28;20110;-84
2022/08/07 01:34:19;;;;;;;8.77;6.60;;;10.90;99.90;;;;;;5061191;28;20063;-82
2022/08/07 01:36:47;;;;;;;9.68;7.10;;;10.90;99.90;;;;;;5076296;28;20438;-81
2022/08/07 01:39:14;;;;;;;10.10;6.35;;;10.90;99.90;;;;;;5065163;28;20102;-81
2022/08/07 01:41:42;;;;;;;8.38;6.88;;;10.70;99.90;;;;;;5073944;28;20134;-81
2022/08/07 01:44:09;;;;;;;9.93;6.82;;;10.80;99.90;;;;;;5056944;28;20059;-81
2022/08/07 01:46:35;;;;;;;14.52;7.30;;;10.80;99.90;;;;;;5059686;28;20048;-82
2022/08/07 01:49:01;;;;;;;10.07;6.70;;;10.70;99.90;;;;;;5058176;28;20059;-82
2022/08/07 01:51:29;;;;;;;12.95;6.90;;;10.80;99.90;;;;;;5058841;28;20063;-81
2022/08/07 01:53:59;;;;;;;12.73;7.45;;;10.70;99.90;;;;;;5074540;28;20060;-82
2022/08/07 01:56:28;;;;;;;12.95;7.65;;;10.70;99.90;;;;;;5075268;28;20060;-81
2022/08/07 01:59:04;;;;;;;8.35;6.85;;;10.80;99.90;;;;;;5074572;28;20056;-81
2022/08/07 02:01:35;;;;;;;10.68;6.97;;;10.70;99.90;;;;;;5074055;28;20049;-85
2022/08/07 02:04:08;;;;;;;9.13;7.07;;;10.70;99.90;;;;;;5064567;28;20063;-81
2022/08/07 02:06:37;;;;;;;9.02;7.15;;;10.60;99.90;;;;;;5090945;28;20045;-82
2022/08/07 02:09:06;;;;;;;12.18;7.60;;;10.60;99.90;;;;;;5047547;28;20496;-82
2022/08/07 02:11:40;;;;;;;8.98;7.28;;;10.50;99.90;;;;;;5075735;28;20052;-83
2022/08/07 02:14:07;;;;;;;9.75;7.65;;;10.60;99.90;;;;;;5059153;28;20068;-83
2022/08/07 02:16:36;;;;;;;9.93;7.75;;;10.50;99.90;;;;;;5075360;28;20082;-81
2022/08/07 02:19:05;;;;;;;10.07;7.25;;;10.60;99.90;;;;;;5075006;28;20390;-82
2022/08/07 02:21:34;;;;;;;10.82;8.20;;;10.50;99.90;;;;;;5091093;28;20429;-81
2022/08/07 02:24:00;;;;;;;10.27;7.25;;;10.50;99.90;;;;;;5075115;28;20048;-81
2022/08/07 02:26:28;;;;;;;8.88;7.00;;;10.50;99.90;;;;;;5074068;28;20140;-81
2022/08/07 02:28:55;;;;;;;9.45;7.00;;;10.50;99.90;;;;;;5075026;28;20535;-81
2022/08/07 02:31:22;;;;;;;9.30;6.57;;;10.50;99.90;;;;;;5075306;28;20048;-81
2022/08/07 02:33:51;;;;;;;10.73;7.00;;;10.50;99.90;;;;;;5062200;28;20052;-82
2022/08/07 02:36:18;;;;;;;11.13;7.40;;;10.50;99.90;;;;;;5074753;28;20052;-83
2022/08/07 02:38:44;;;;;;;9.32;7.32;;;10.60;99.90;;;;;;5074959;28;20041;-82
2022/08/07 02:41:11;;;;;;;9.30;7.05;;;10.40;99.90;;;;;;5073610;28;20060;-82
2022/08/07 02:43:40;;;;;;;11.18;7.18;;;10.50;99.90;;;;;;5073288;28;20131;-82
2022/08/07 02:46:07;;;;;;;13.13;7.35;;;10.30;99.90;;;;;;5071416;28;20052;-81
2022/08/07 02:48:33;;;;;;;9.32;7.22;;;10.30;99.90;;;;;;5055287;28;20052;-81
2022/08/07 02:51:07;;;;;;;9.32;7.32;;;10.30;99.90;;;;;;5074813;28;20053;-81
2022/08/07 02:53:36;;;;;;;10.85;7.05;;;10.30;99.90;;;;;;5072362;28;20052;-82
2022/08/07 02:56:05;;;;;;;11.10;8.20;;;10.20;99.90;;;;;;5074363;28;20669;-83
2022/08/07 02:58:33;;;;;;;10.70;7.40;;;10.20;99.90;;;;;;5073453;28;20052;-81
2022/08/07 03:01:00;;;;;;;11.68;7.72;;;10.20;99.90;;;;;;5073345;28;20390;-82
2022/08/07 03:03:30;;;;;;;10.07;7.65;;;10.20;99.90;;;;;;5073489;28;20485;-82
2022/08/07 03:05:56;;;;;;;11.02;7.13;;;10.20;99.90;;;;;;5072008;28;20064;-81
2022/08/07 03:08:23;;;;;;;11.45;8.02;;;10.20;99.90;;;;;;5074465;28;20052;-81
2022/08/07 03:10:49;;;;;;;10.90;7.10;;;10.30;99.90;;;;;;5073204;28;20048;-81
2022/08/07 03:13:16;;;;;;;10.30;6.75;;;10.30;99.90;;;;;;5089977;28;20048;-82
2022/08/07 03:15:43;;;;;;;9.18;6.78;;;10.30;99.90;;;;;;5071784;28;20055;-81
2022/08/07 03:18:10;;;;;;;9.13;6.50;;;10.30;99.90;;;;;;5054712;28;20432;-82
2022/08/07 03:20:36;;;;;;;12.60;7.07;;;10.20;99.90;;;;;;5055195;28;20056;-81
2022/08/07 03:23:03;;;;;;;8.57;6.10;;;10.20;99.90;;;;;;5074313;28;20060;-82
2022/08/07 03:25:31;;;;;;;10.88;7.25;;;10.20;99.90;;;;;;5065400;28;20048;-81
2022/08/07 03:27:59;;;;;;;8.85;6.75;;;10.10;99.90;;;;;;5074095;28;20098;-82
2022/08/07 03:30:25;;;;;;;8.50;6.47;;;10.10;99.90;;;;;;5071076;28;20048;-83
2022/08/07 03:32:52;;;;;;;10.07;7.25;;;10.10;99.90;;;;;;5057148;28;20092;-83
2022/08/07 03:35:24;;;;;;;10.05;6.88;;;10.00;99.90;;;;;;5056165;28;20404;-83
2022/08/07 03:37:55;;;;;;;13.80;6.75;;;10.00;99.90;;;;;;5073188;28;20090;-81
2022/08/07 03:40:22;;;;;;;11.48;7.28;;;10.00;99.90;;;;;;5073735;28;20048;-82
2022/08/07 03:42:53;;;;;;;10.90;7.50;;;10.00;99.90;;;;;;5073241;28;20464;-81
2022/08/07 03:45:20;;;;;;;9.23;7.00;;;9.90;99.90;;;;;;5089122;28;20045;-81
2022/08/07 03:47:46;;;;;;;10.25;7.80;;;9.90;99.90;;;;;;5072960;28;20056;-83
2022/08/07 03:50:11;;;;;;;9.63;6.65;;;10.10;99.90;;;;;;5073559;28;20105;-82
2022/08/07 03:52:38;;;;;;;11.23;7.97;;;9.90;99.90;;;;;;5072305;28;20061;-81
2022/08/07 03:55:04;;;;;;;10.45;7.25;;;9.90;99.90;;;;;;5073085;28;20413;-86
2022/08/07 03:57:32;;;;;;;10.75;7.25;;;9.90;99.90;;;;;;5072530;28;20099;-82
2022/08/07 03:59:58;;;;;;;11.65;7.90;;;9.80;99.90;;;;;;5070416;28;20431;-82
2022/08/07 04:02:24;;;;;;;9.30;6.85;;;9.80;99.90;;;;;;5073197;28;20049;-81
2022/08/07 04:04:51;;;;;;;10.27;7.05;;;9.80;99.90;;;;;;5064230;28;20055;-82
2022/08/07 04:07:18;;;;;;;10.00;7.03;;;9.80;99.90;;;;;;5073424;28;20158;-81
2022/08/07 04:09:45;;;;;;;9.93;7.25;;;9.80;99.90;;;;;;5073283;28;20044;-81
2022/08/07 04:12:12;;;;;;;9.70;7.15;;;9.70;99.90;;;;;;5055784;28;20484;-81
2022/08/07 04:14:38;;;;;;;9.70;6.70;;;9.80;99.90;;;;;;5072445;28;20044;-86
2022/08/07 04:17:05;;;;;;;12.55;7.40;;;9.70;99.90;;;;;;5066022;28;20079;-81
2022/08/07 04:19:30;;;;;;;11.50;8.43;;;9.80;99.90;;;;;;5073461;28;20056;-81
2022/08/07 04:21:56;;;;;;;13.45;7.85;;;9.80;99.90;;;;;;5072830;28;20098;-82
2022/08/07 04:24:22;;;;;;;11.68;6.95;;;9.80;99.90;;;;;;5072667;28;20048;-82
2022/08/07 04:26:48;;;;;;;13.18;7.35;;;9.80;99.90;;;;;;5072936;28;20136;-81
2022/08/07 04:29:14;;;;;;;12.02;7.60;;;9.80;99.90;;;;;;5088628;28;20143;-81
2022/08/07 04:31:40;;;;;;;10.07;7.68;;;9.90;99.90;;;;;;5054310;28;20052;-82
2022/08/07 04:34:07;;;;;;;11.95;7.88;;;9.80;99.90;;;;;;5055400;28;20381;-82
2022/08/07 04:36:33;;;;;;;12.18;7.60;;;9.80;99.90;;;;;;5071959;28;20055;-82
2022/08/07 04:39:03;;;;;;;12.60;7.50;;;9.90;99.90;;;;;;5072970;28;20048;-81
2022/08/07 04:41:29;;;;;;;10.05;7.18;;;9.90;99.90;;;;;;5088321;28;20048;-82
2022/08/07 04:43:55;;;;;;;10.73;7.60;;;9.90;99.90;;;;;;5071494;28;20063;-84
2022/08/07 04:46:42;;;;;;;10.23;7.82;;;10.00;99.90;;;;;;5072696;28;20091;-82
2022/08/07 04:49:35;;;;;;;11.10;8.27;;;10.00;99.90;;;;;;5054850;28;20453;-83
2022/08/07 04:52:00;;;;;;;11.38;8.15;;;10.10;99.90;;;;;;5039024;28;20088;-81
2022/08/07 04:54:53;;;;;;;10.82;8.18;;;10.10;99.90;;;;;;5055429;28;20080;-81
2022/08/07 04:57:35;;;;;;;15.93;9.15;;;10.10;99.90;;;;;;5072505;28;20452;-81
2022/08/07 05:00:08;;;;;;;10.43;8.30;;;10.10;99.90;;;;;;5072514;28;20040;-85
2022/08/07 05:02:40;;;;;;;12.60;8.75;;;10.10;99.90;;;;;;5072003;28;20048;-81
2022/08/07 05:05:28;;;;;;;13.02;8.40;;;10.30;99.90;;;;;;5071816;28;20036;-81
2022/08/07 05:08:09;;;;;;;14.85;9.60;;;10.30;99.90;;;;;;5071153;28;20400;-81
2022/08/07 05:10:44;;;;;;;13.48;9.20;;;10.40;99.90;;;;;;5072981;28;20080;-80
2022/08/07 05:13:26;;;;;;;14.68;10.20;;;10.50;99.90;;;;;;5071564;28;20131;-81
2022/08/07 05:15:53;;;;;;;17.55;10.82;;;10.60;99.90;;;;;;5071776;28;20057;-81
2022/08/07 05:18:29;;;;;;;19.80;11.20;;;10.70;99.90;;;;;;5072653;28;20135;-82
2022/08/07 05:21:01;;;;;;;18.00;11.07;;;10.80;99.90;;;;;;5054947;28;20063;-81
2022/08/07 05:23:58;;;;;;;14.98;11.68;;;10.90;99.90;;;;;;5072416;28;20121;-82
2022/08/07 05:26:26;;;;;;;20.17;12.15;;;11.00;99.90;;;;;;5052941;28;20044;-81
2022/08/07 05:28:55;;;;;;;17.58;11.50;;;11.20;99.90;;;;;;5054833;28;20048;-81
2022/08/07 05:31:34;;;;;;;18.85;11.82;;;11.40;99.90;;;;;;5059619;28;20056;-82
2022/08/07 05:34:01;;;;;;;18.85;11.60;;;11.40;99.90;;;;;;5072001;28;20049;-81
2022/08/07 05:36:28;;;;;;;17.05;10.98;;;11.60;99.90;;;;;;5037475;28;20052;-83
2022/08/07 05:38:55;;;;;;;15.30;10.38;;;11.70;99.90;;;;;;5071569;28;20109;-83
2022/08/07 05:41:21;;;;;;;15.63;11.32;;;11.80;99.90;;;;;;5054148;28;20045;-81
2022/08/07 05:43:50;;;;;;;13.90;10.05;;;11.90;99.90;;;;;;5053754;28;20606;-82
2022/08/07 05:46:18;;;;;;;17.08;8.77;;;12.00;99.90;;;;;;5072165;28;20096;-82
2022/08/07 05:48:44;;;;;;;14.00;9.15;;;12.20;99.90;;;;;;5036246;28;20056;-82
2022/08/07 05:51:11;;;;;;;16.80;9.57;;;12.40;99.90;;;;;;5071197;28;20037;-82
2022/08/07 05:53:37;;;;;;;15.93;11.82;;;12.50;99.90;;;;;;5070589;28;20111;-83
2022/08/07 05:56:05;;;;;;;17.42;12.27;;;12.60;99.90;;;;;;5053662;28;20060;-84
2022/08/07 05:58:31;;;;;;;17.08;12.05;;;12.70;99.90;;;;;;5071628;28;20462;-83
2022/08/07 06:00:58;;;;;;;19.05;13.52;;;12.80;99.90;;;;;;5051843;28;20087;-82
2022/08/07 06:03:27;;;;;;;18.88;14.00;;;12.90;99.90;;;;;;5037135;28;20048;-82
2022/08/07 06:05:53;;;;;;;16.10;12.75;;;13.00;99.90;;;;;;5071293;28;20052;-82
2022/08/07 06:08:19;;;;;;;16.77;12.65;;;13.10;99.90;;;;;;5037036;28;20086;-85
2022/08/07 06:10:45;;;;;;;16.08;12.05;;;13.40;99.90;;;;;;5053684;28;20110;-82
2022/08/07 06:13:11;;;;;;;18.92;12.75;;;13.50;99.90;;;;;;5053197;28;20457;-82
2022/08/07 06:15:40;;;;;;;17.35;12.38;;;13.70;99.90;;;;;;5053626;28;20128;-82
2022/08/07 06:18:06;;;;;;;19.50;12.35;;;13.80;99.90;;;;;;5053916;28;20461;-82
2022/08/07 06:20:36;;;;;;;17.25;11.55;;;14.00;99.90;;;;;;5074791;28;20056;-82
2022/08/07 06:23:04;;;;;;;15.82;12.20;;;14.10;99.90;;;;;;5074650;28;20052;-83
2022/08/07 06:25:30;;;;;;;18.77;12.40;;;14.20;99.90;;;;;;5057358;28;20044;-83
2022/08/07 06:28:04;;;;;;;21.08;12.25;;;14.40;99.90;;;;;;5057299;28;20137;-81
2022/08/07 06:30:30;;;;;;;17.65;11.48;;;14.50;99.90;;;;;;5056972;28;20052;-84
2022/08/07 06:32:56;;;;;;;16.23;11.55;;;14.70;99.90;;;;;;5057128;28;20396;-82
2022/08/07 06:35:21;;;;;;;16.40;11.20;;;14.90;99.90;;;;;;5074705;28;20185;-81
2022/08/07 06:37:47;;;;;;;15.45;11.23;;;15.10;99.90;;;;;;5074421;28;20053;-83
2022/08/07 06:40:13;;;;;;;15.18;10.93;;;15.30;99.90;;;;;;5090807;28;20052;-82
2022/08/07 06:42:41;;;;;;;14.45;10.70;;;15.30;99.90;;;;;;5074952;28;20468;-81
2022/08/07 06:45:12;;;;;;;13.98;10.27;;;15.50;99.90;;;;;;5074568;28;20044;-81
2022/08/07 06:47:37;;;;;;;;;;;15.80;99.90;;;;;;5074924;28;20044;-81
2022/08/07 06:50:04;;;;;;;14.38;10.43;;;15.70;99.90;;;;;;5074491;28;20460;-81
2022/08/07 06:52:34;;;;;;;13.82;10.15;;;15.80;99.90;;;;;;5056179;28;20056;-82
2022/08/07 06:55:00;;;;;;;14.63;10.25;;;15.90;99.90;;;;;;5074509;28;20461;-82
2022/08/07 06:57:28;;;;;;;15.15;10.00;;;16.00;99.90;;;;;;5074395;28;20060;-83
2022/08/07 06:59:55;;;;;;;16.38;10.00;;;16.10;99.90;;;;;;5074193;28;20087;-80
2022/08/07 07:02:24;;;;;;;12.55;8.85;;;16.20;99.90;;;;;;5074291;28;20048;-80
2022/08/07 07:04:49;;;;;;;12.98;9.38;;;16.40;99.90;;;;;;5074176;28;20082;-81
2022/08/07 07:07:15;;;;;;;9.10;7.53;;;16.50;99.90;;;;;;5073885;28;20426;-81
2022/08/07 07:09:49;;;;;;;12.50;7.93;;;16.50;99.90;;;;;;5073308;28;20143;-81
2022/08/07 07:12:39;;;;;;;10.73;7.30;;;16.70;99.90;;;;;;5056328;28;20048;-81
2022/08/07 07:15:12;;;;;;;8.73;6.60;;;16.90;99.90;;;;;;5056216;28;20071;-82
2022/08/07 07:17:58;;;;;;;12.23;8.05;;;17.10;99.90;;;;;;5054807;28;20375;-81
2022/08/07 07:20:33;;;;;;;10.57;7.72;;;17.10;99.90;;;;;;5051774;28;20445;-82
2022/08/07 07:23:00;;;;;;;10.73;7.05;;;17.20;99.90;;;;;;5054015;28;20060;-82
2022/08/07 07:25:26;;;;;;;11.15;7.93;;;17.30;99.90;;;;;;5052752;28;20108;-82
2022/08/07 07:28:17;;;;;;;10.15;7.22;;;17.40;99.90;;;;;;5053680;28;20072;-83
2022/08/07 07:30:55;;;;;;;8.60;6.72;;;17.60;99.90;;;;;;5054477;28;20098;-82
2022/08/07 07:33:22;;;;;;;9.43;7.10;;;17.70;99.90;;;;;;5056171;28;20057;-81
2022/08/07 07:35:50;;;;;;;8.80;7.13;;;17.90;99.90;;;;;;5073736;28;20078;-81
2022/08/07 07:38:20;;;;;;;7.40;6.50;;;17.90;99.90;;;;;;5056211;28;20044;-79
2022/08/07 07:40:47;;;;;;;13.32;7.65;;;18.00;99.90;;;;;;5074029;28;20102;-81
2022/08/07 07:43:15;;;;;;;9.80;6.65;;;18.10;99.90;;;;;;5056315;28;20062;-81
2022/08/07 07:45:41;;;;;;;8.38;6.70;;;18.20;99.90;;;;;;5074151;28;20056;-80
2022/08/07 07:48:11;;;;;;;8.30;5.40;;;18.50;99.90;;;;;;5056452;28;20052;-81
2022/08/07 07:50:39;;;;;;;6.50;5.00;;;18.90;99.90;;;;;;5073848;28;20384;-80
2022/08/07 07:53:08;;;;;;;6.63;5.15;;;19.20;99.90;;;;;;5074095;28;20097;-81
2022/08/07 07:55:34;;;;;;;5.43;4.50;;;19.80;99.90;;;;;;5055565;28;20048;-81
2022/08/07 07:58:01;;;;;;;5.72;4.55;;;20.50;99.90;;;;;;5056053;28;20125;-81
2022/08/07 08:00:28;;;;;;;9.60;4.93;;;20.90;99.90;;;;;;5073766;28;20087;-80
2022/08/07 08:02:58;;;;;;;4.78;3.85;;;21.20;96.80;;;;;;5073740;28;20090;-80
2022/08/07 08:05:24;;;;;;;4.97;3.77;;;21.70;94.00;;;;;;5055703;28;20131;-81
2022/08/07 08:07:50;;;;;;;5.05;2.75;;;22.30;83.50;;;;;;5073393;28;20194;-80
2022/08/07 08:10:18;;;;;;;6.88;2.20;;;22.90;75.00;;;;;;5055283;28;20055;-84
2022/08/07 08:12:45;;;;;;;4.35;2.88;;;23.40;68.90;;;;;;5055727;28;20396;-81
2022/08/07 08:15:11;;;;;;;4.43;2.65;;;23.90;67.60;;;;;;5073554;28;20554;-82
2022/08/07 08:17:37;;;;;;;5.05;2.95;;;24.40;64.60;;;;;;5073447;28;20084;-80
2022/08/07 08:20:06;;;;;;;4.10;2.88;;;24.90;62.60;;;;;;5073364;28;20040;-81
2022/08/07 08:28:11;;;;;;;4.80;2.92;;;26.10;59.10;;;;;;5055545;28;20129;-83
2022/08/07 08:30:38;;;;;;;6.00;3.50;;;26.60;57.20;;;;;;5073177;28;20049;-81
2022/08/07 08:33:05;;;;;;;4.30;3.35;;;27.10;55.90;;;;;;5073154;28;20040;-83
2022/08/07 08:35:33;;;;;;;5.53;3.45;;;27.40;54.30;;;;;;5055361;28;20087;-83
2022/08/07 08:38:01;;;;;;;4.25;3.10;;;27.60;55.00;;;;;;5072961;28;20495;-81
2022/08/07 08:40:40;;;;;;;3.45;2.53;;;28.20;54.80;;;;;;5055262;28;20455;-80
2022/08/07 08:43:20;;;;;;;2.95;2.70;;;28.80;54.50;;;;;;5072131;28;20134;-82
2022/08/07 08:45:48;;;;;;;2.97;2.70;;;29.40;50.40;;;;;;5038672;28;20056;-81
2022/08/07 08:48:47;;;;;;;4.32;3.22;;;29.50;49.90;;;;;;5073071;28;20056;-82
2022/08/07 08:51:23;;;;;;;3.22;2.70;;;29.40;49.10;;;;;;5072146;28;20091;-81
2022/08/07 08:54:06;;;;;;;4.63;3.20;;;29.40;49.30;;;;;;5072768;28;20048;-81
2022/08/07 08:56:36;;;;;;;4.40;3.05;;;29.50;49.20;;;;;;5073115;28;20139;-81
2022/08/07 08:59:11;;;;;;;4.10;3.35;;;29.80;48.90;;;;;;5072567;28;20055;-85
2022/08/07 09:02:06;;;;;;;4.38;3.05;;;30.20;47.90;;;;;;5071032;28;20055;-82
2022/08/07 09:04:49;;;;;;;4.28;3.10;;;30.60;46.90;;;;;;5054768;28;20099;-82
2022/08/07 09:07:36;;;;;;;4.05;3.42;;;30.70;45.60;;;;;;5073004;28;20091;-81
2022/08/07 09:10:13;;;;;;;3.50;3.17;;;30.60;45.30;;;;;;5049553;28;20067;-82
2022/08/07 09:12:50;;;;;;;5.13;3.60;;;30.50;45.50;;;;;;5050988;28;20063;-82
2022/08/07 09:15:27;;;;;;;4.10;3.47;;;30.80;45.90;;;;;;5052174;28;20088;-81
2022/08/07 09:17:58;;;;;;;4.88;3.33;;;31.20;44.70;;;;;;5050988;28;20067;-81
2022/08/07 09:20:35;;;;;;;4.60;3.53;;;31.20;44.80;;;;;;5050950;28;20045;-83
2022/08/07 09:23:22;;;;;;;5.22;3.55;;;31.30;45.20;;;;;;5017969;28;20053;-81
2022/08/07 09:26:35;;;;;;;4.15;3.03;;;31.90;45.80;;;;;;5034248;28;20044;-82
2022/08/07 09:29:31;;;;;;;3.60;3.20;;;32.20;44.00;;;;;;5009746;28;20050;-84
2022/08/07 09:32:04;;;;;;;3.67;3.28;;;32.20;42.90;;;;;;4993038;28;20076;-83
2022/08/07 09:34:52;;;;;;;4.03;3.20;;;32.40;43.50;;;;;;4976897;28;20049;-82
2022/08/07 09:37:33;;;;;;;2.92;2.65;;;32.70;42.10;;;;;;4976948;28;20174;-82
2022/08/07 09:40:14;;;;;;;3.63;2.70;;;32.90;42.10;;;;;;5036154;28;20088;-81
2022/08/07 09:42:45;;;;;;;3.42;3.13;;;33.00;41.00;;;;;;5032630;28;20049;-83
2022/08/07 09:45:19;;;;;;;4.20;2.50;;;32.80;41.20;;;;;;5015488;28;20083;-82
2022/08/07 09:48:20;;;;;;;3.05;2.40;;;32.80;41.60;;;;;;5032245;28;20397;-82
2022/08/07 09:51:05;;;;;;;3.85;2.35;;;33.00;40.40;;;;;;5032422;28;20088;-85
2022/08/07 09:53:37;;;;;;;3.38;2.47;;;33.30;42.40;;;;;;5049419;28;20505;-83
2022/08/07 09:56:21;;;;;;;4.05;2.15;;;33.80;40.60;;;;;;5035394;28;20048;-83
2022/08/07 09:59:18;;;;;;;4.05;2.30;;;33.70;39.30;;;;;;5036430;28;20056;-86
2022/08/07 10:01:56;;;;;;;3.47;1.90;;;33.50;39.80;;;;;;5053058;28;20045;-86
2022/08/07 10:04:25;;;;;;;5.10;2.13;;;33.50;40.20;;;;;;5040789;28;20070;-83
2022/08/07 10:07:45;;;;;;;4.05;2.00;;;33.50;39.80;;;;;;5057555;28;20048;-82
2022/08/07 10:10:28;;;;;;;3.05;2.03;;;33.60;39.40;;;;;;4976827;28;20140;-86
2022/08/07 10:13:18;;;;;;;3.13;1.80;;;32.60;41.40;;;;;;4993491;28;20046;-83
2022/08/07 10:16:23;;;;;;;4.00;2.03;;;32.80;40.80;;;;;;4977149;28;20418;-85
2022/08/07 10:19:19;;;;;;;3.28;2.10;;;33.00;40.40;;;;;;4900815;29;20445;-83
2022/08/07 10:22:10;;;;;;;2.95;1.92;;;33.50;39.90;;;;;;4900976;29;20112;-83
2022/08/07 10:24:38;;;;;;;;;;;33.80;39.60;;;;;;4900950;29;20056;-87
2022/08/07 10:27:28;;;;;;;2.53;2.10;;;34.30;40.50;;;;;;4901013;29;20485;-86
2022/08/07 10:30:05;;;;;;;3.60;1.85;;;34.40;37.50;;;;;;4900425;29;20052;-84
2022/08/07 10:32:54;;;;;;;4.70;2.20;;;33.80;38.70;;;;;;4900909;29;20063;-83
2022/08/07 10:35:46;;;;;;;3.10;1.90;;;32.30;40.20;;;;;;4900658;29;20051;-82
2022/08/07 10:38:47;;;;;;;4.07;1.90;;;31.60;41.30;;;;;;4900789;29;20048;-83
2022/08/07 10:41:32;;;;;;;3.05;1.90;;;31.40;40.70;;;;;;4900752;29;20048;-82
2022/08/07 10:44:17;;;;;;;2.47;1.95;;;32.20;40.80;;;;;;4923415;28;20093;-82
2022/08/07 10:47:05;;;;;;;4.47;2.05;;;33.10;40.20;;;;;;4958225;28;20065;-83
2022/08/07 10:49:49;;;;;;;6.35;2.10;;;33.40;39.90;;;;;;4958350;28;20065;-83
2022/08/07 10:52:27;;;;;;;3.08;1.92;;;33.50;39.70;;;;;;4957893;28;20058;-84
2022/08/07 10:55:05;;;;;;;3.20;1.77;;;33.90;39.30;;;;;;4976222;28;20051;-83
2022/08/07 10:57:49;;;;;;;6.78;1.95;;;34.10;38.30;;;;;;5057317;28;20056;-83
2022/08/07 11:00:17;;;;;;;5.10;2.10;;;33.80;38.90;;;;;;5053446;28;20131;-88
2022/08/07 11:02:59;;;;;;;5.10;1.90;;;33.70;39.30;;;;;;5040247;28;20117;-84
2022/08/07 11:05:31;;;;;;;2.40;1.80;;;34.00;38.40;;;;;;5055269;28;20052;-82
2022/08/07 11:08:23;;;;;;;2.35;1.42;;;34.50;38.60;;;;;;5056068;28;20059;-81
2022/08/07 11:11:20;;;;;;;2.47;1.40;;;34.80;38.50;;;;;;5073849;28;20163;-81
2022/08/07 11:13:50;;;;;;;2.30;1.52;;;35.20;37.40;;;;;;5056018;28;20060;-81
2022/08/07 11:16:25;;;;;;;1.45;1.23;;;35.20;37.50;;;;;;5039459;28;20052;-81
2022/08/07 11:19:00;;;;;;;3.40;1.50;;;34.90;36.70;;;;;;5073955;28;20052;-83
2022/08/07 11:21:41;;;;;;;2.35;1.60;;;34.70;37.20;;;;;;5056141;28;20090;-81
2022/08/07 11:24:10;;;;;;;1.77;1.30;;;34.70;37.50;;;;;;5057354;28;20376;-86
2022/08/07 11:26:47;;;;;;;3.92;1.70;;;34.70;36.00;;;;;;5039827;28;20061;-84
2022/08/07 11:29:50;;;;;;;1.60;1.33;;;34.20;36.70;;;;;;5058924;28;20095;-84
2022/08/07 11:32:48;;;;;;;2.40;1.10;;;33.90;36.60;;;;;;5031619;28;20053;-90
2022/08/07 11:35:24;;;;;;;1.63;1.35;;;33.90;36.70;;;;;;4992532;28;20421;-87
2022/08/07 11:38:34;;;;;;;2.60;1.60;;;33.80;36.90;;;;;;5045358;28;20153;-82
2022/08/07 11:41:22;;;;;;;1.63;1.23;;;33.70;37.40;;;;;;5017617;28;20061;-87
2022/08/07 11:44:00;;;;;;;1.40;1.27;;;33.90;37.70;;;;;;5036267;28;20088;-82
2022/08/07 11:46:54;;;;;;;2.00;1.20;;;33.80;35.90;;;;;;5036542;28;20463;-89
2022/08/07 11:49:44;;;;;;;2.10;1.50;;;33.60;36.40;;;;;;5054160;28;20060;-84
2022/08/07 11:52:37;;;;;;;2.17;1.17;;;33.40;36.20;;;;;;5054267;28;20497;-86
2022/08/07 11:55:32;;;;;;;1.70;1.20;;;33.10;37.00;;;;;;4994524;28;20168;-84
2022/08/07 11:58:21;;;;;;;1.45;1.17;;;33.10;36.30;;;;;;5040279;28;20052;-88
2022/08/07 12:01:11;;;;;;;2.83;1.30;;;33.30;37.20;;;;;;5040172;28;20056;-89
2022/08/07 12:03:58;;;;;;;2.28;1.40;;;33.30;36.50;;;;;;5039602;28;20057;-87
2022/08/07 12:06:44;;;;;;;2.97;1.30;;;33.40;36.90;;;;;;5056786;28;20107;-87
2022/08/07 12:09:21;;;;;;;1.88;1.33;;;33.00;36.00;;;;;;5055214;28;20494;-85
2022/08/07 12:12:05;;;;;;;1.42;1.10;;;32.90;36.90;;;;;;5054981;28;20471;-85
2022/08/07 12:14:58;;;;;;;1.50;1.10;;;32.80;37.10;;;;;;5054902;28;20064;-86
2022/08/07 12:17:31;;;;;;;2.53;1.30;;;32.10;37.10;;;;;;4939416;28;20086;-85
2022/08/07 12:20:05;;;;;;;1.35;1.10;;;31.20;38.00;;;;;;4971266;28;20602;-85
2022/08/07 12:23:11;;;;;;;1.95;1.20;;;30.50;39.20;;;;;;4939915;28;20066;-81
2022/08/07 12:25:56;;;;;;;2.33;1.20;;;30.50;39.70;;;;;;4956242;28;20055;-86
2022/08/07 12:28:42;;;;;;;1.77;1.13;;;30.50;39.40;;;;;;4950253;28;20093;-87
2022/08/07 12:31:35;;;;;;;1.20;1.10;;;30.70;39.40;;;;;;4956300;28;20055;-87
2022/08/07 12:34:02;;;;;;;2.45;1.35;;;30.20;37.40;;;;;;4971297;28;20140;-86
2022/08/07 12:36:31;;;;;;;1.10;0.98;;;29.50;39.60;;;;;;4910621;28;20167;-84
2022/08/07 12:38:59;;;;;;;3.17;1.02;;;29.10;39.70;;;;;;4970043;28;20158;-85
2022/08/07 12:41:28;;;;;;;1.27;1.17;;;28.70;39.80;;;;;;4969902;28;20114;-85
2022/08/07 12:43:56;;;;;;;1.48;1.27;;;28.30;40.40;;;;;;4954468;28;20066;-86
2022/08/07 12:46:42;;;;;;;1.80;1.00;;;27.80;41.70;;;;;;4969845;28;20061;-89
2022/08/07 12:49:21;;;;;;;2.78;1.38;;;27.50;42.60;;;;;;4935538;28;20416;-84
2022/08/07 12:51:59;;;;;;;2.78;1.50;;;27.20;42.50;;;;;;4953263;28;20149;-85
2022/08/07 12:54:57;;;;;;;2.35;1.45;;;27.10;43.10;;;;;;4958881;28;20051;-85
2022/08/07 12:57:30;;;;;;;2.50;1.30;;;27.00;43.50;;;;;;5008858;28;20489;-87
2022/08/07 12:59:58;;;;;;;1.60;1.27;;;26.90;43.90;;;;;;5024578;28;20126;-87
2022/08/07 13:02:49;;;;;;;2.28;1.45;;;27.00;44.20;;;;;;5025294;28;20056;-91
2022/08/07 13:05:29;;;;;;;3.08;1.55;;;27.00;43.10;;;;;;5024992;28;20527;-84
2022/08/07 13:08:32;;;;;;;2.23;1.50;;;26.80;43.60;;;;;;5040361;28;20049;-85
2022/08/07 13:11:36;;;;;;;1.60;1.50;;;26.40;44.00;;;;;;5043436;28;20307;-87
2022/08/07 13:14:15;;;;;;;3.80;1.65;;;26.10;46.10;;;;;;5039172;28;20469;-88
2022/08/07 13:16:53;;;;;;;1.20;1.10;;;26.00;47.10;;;;;;5028306;28;20085;-85
2022/08/07 13:19:56;;;;;;;1.35;1.25;;;25.90;46.10;;;;;;5023709;28;20052;-83
2022/08/07 13:22:51;;;;;;;1.77;1.17;;;25.90;47.10;;;;;;5039457;28;20041;-84